createdAt,value
2019-02-18T00:01:09.552Z,1.30
2019-02-18T00:03:37.491Z,1.30
2019-02-18T00:06:05.344Z,1.30
2019-02-18T00:08:33.385Z,1.30
2019-02-18T00:11:01.427Z,1.30
2019-02-18T00:13:29.467Z,1.30
2019-02-18T00:15:57.578Z,1.30
2019-02-18T00:18:25.630Z,1.30
2019-02-18T00:20:53.648Z,1.30
2019-02-18T00:23:21.584Z,1.30
2019-02-18T00:25:49.503Z,1.30
2019-02-18T00:28:17.644Z,1.30
2019-02-18T00:30:45.700Z,1.40
2019-02-18T00:33:13.712Z,1.40
2019-02-18T00:35:41.770Z,1.40
2019-02-18T00:38:09.891Z,1.40
2019-02-18T00:40:37.953Z,1.40
2019-02-18T00:43:06.071Z,1.40
2019-02-18T00:45:34.148Z,1.40
2019-02-18T00:48:02.227Z,1.40
2019-02-18T00:50:30.221Z,1.40
2019-02-18T00:52:58.399Z,1.50
2019-02-18T00:55:26.433Z,1.50
2019-02-18T00:57:54.447Z,1.50
2019-02-18T01:00:22.472Z,1.50
2019-02-18T01:02:51.535Z,1.50
2019-02-18T01:05:19.711Z,1.50
2019-02-18T01:07:47.604Z,1.50
2019-02-18T01:10:15.879Z,1.50
2019-02-18T01:12:43.819Z,1.50
2019-02-18T01:15:11.781Z,1.50
2019-02-18T01:17:39.684Z,1.60
2019-02-18T01:20:08.472Z,1.60
2019-02-18T01:22:36.422Z,1.60
2019-02-18T01:25:05.173Z,1.60
2019-02-18T01:27:33.204Z,1.60
2019-02-18T01:30:01.227Z,1.60
2019-02-18T01:32:29.281Z,1.60
2019-02-18T01:34:57.727Z,1.60
2019-02-18T01:37:25.739Z,1.60
2019-02-18T01:39:53.856Z,1.60
2019-02-18T01:42:21.884Z,1.70
2019-02-18T01:44:49.899Z,1.70
2019-02-18T01:47:17.764Z,1.70
2019-02-18T01:49:45.811Z,1.70
2019-02-18T01:52:13.856Z,1.70
2019-02-18T01:54:41.888Z,1.70
2019-02-18T01:57:09.792Z,1.70
2019-02-18T01:59:37.724Z,1.70
2019-02-18T02:02:05.904Z,1.70
2019-02-18T02:04:33.948Z,1.70
2019-02-18T02:07:01.978Z,1.70
2019-02-18T02:09:30.004Z,1.80
2019-02-18T02:11:57.860Z,1.70
2019-02-18T02:14:25.905Z,1.80
2019-02-18T02:16:53.972Z,1.80
2019-02-18T02:19:22.009Z,1.80
2019-02-18T02:21:50.055Z,1.80
2019-02-18T02:24:18.109Z,1.80
2019-02-18T02:26:46.270Z,1.80
2019-02-18T02:29:14.294Z,1.80
2019-02-18T02:31:42.325Z,1.80
2019-02-18T02:34:10.171Z,1.80
2019-02-18T02:36:38.195Z,1.80
2019-02-18T02:39:06.257Z,1.80
2019-02-18T02:41:34.255Z,1.80
2019-02-18T02:44:02.173Z,1.80
2019-02-18T02:46:30.192Z,1.80
2019-02-18T02:48:58.237Z,1.80
2019-02-18T02:51:26.264Z,1.80
2019-02-18T02:53:54.431Z,1.80
2019-02-18T02:56:22.468Z,1.80
2019-02-18T02:58:50.711Z,1.80
2019-02-18T03:01:18.630Z,1.80
2019-02-18T03:03:46.671Z,1.90
2019-02-18T03:06:14.724Z,1.90
2019-02-18T03:08:42.564Z,1.90
2019-02-18T03:11:10.595Z,1.90
2019-02-18T03:13:38.664Z,1.90
2019-02-18T03:16:06.740Z,1.90
2019-02-18T03:18:35.903Z,1.90
2019-02-18T03:21:03.859Z,1.90
2019-02-18T03:23:31.898Z,1.90
2019-02-18T03:25:59.834Z,1.90
2019-02-18T03:29:19.159Z,1.90
2019-02-18T03:31:47.117Z,1.90
2019-02-18T03:34:24.859Z,1.90
2019-02-18T03:36:53.003Z,1.90
2019-02-18T03:39:20.871Z,1.90
2019-02-18T03:41:48.904Z,1.90
2019-02-18T03:44:16.819Z,1.90
2019-02-18T03:46:44.636Z,1.90
2019-02-18T03:49:12.487Z,1.90
2019-02-18T03:51:40.439Z,1.90
2019-02-18T03:54:08.378Z,1.90
2019-02-18T03:56:37.436Z,1.90
2019-02-18T03:59:05.430Z,1.90
2019-02-18T04:01:33.711Z,1.90
2019-02-18T04:04:01.751Z,1.80
2019-02-18T04:06:29.858Z,1.80
2019-02-18T04:08:57.927Z,1.70
2019-02-18T04:11:25.958Z,1.70
2019-02-18T04:13:53.985Z,1.70
2019-02-18T04:16:22.113Z,1.70
2019-02-18T04:18:50.131Z,1.70
2019-02-18T04:21:17.971Z,1.80
2019-02-18T04:23:46.017Z,1.80
2019-02-18T04:26:14.040Z,1.80
2019-02-18T04:28:42.174Z,1.90
2019-02-18T04:31:10.212Z,1.90
2019-02-18T04:33:38.240Z,1.90
2019-02-18T04:36:06.395Z,2.00
2019-02-18T04:38:34.416Z,2.00
2019-02-18T04:41:02.439Z,2.00
2019-02-18T04:43:30.581Z,2.00
2019-02-18T04:45:58.622Z,2.00
2019-02-18T04:48:26.646Z,2.00
2019-02-18T04:50:54.797Z,2.00
2019-02-18T04:53:22.826Z,2.00
2019-02-18T04:55:50.991Z,2.00
2019-02-18T04:58:19.310Z,2.00
2019-02-18T05:00:47.356Z,2.00
2019-02-18T05:03:15.272Z,2.10
2019-02-18T05:05:43.216Z,2.10
2019-02-18T05:08:11.239Z,2.10
2019-02-18T05:10:39.312Z,2.10
2019-02-18T05:13:07.505Z,2.10
2019-02-18T05:15:35.524Z,2.10
2019-02-18T05:18:03.479Z,2.10
2019-02-18T05:20:31.420Z,2.10
2019-02-18T05:22:59.452Z,2.10
2019-02-18T05:25:27.647Z,2.10
2019-02-18T05:27:55.679Z,2.10
2019-02-18T05:30:23.699Z,2.20
2019-02-18T05:32:51.740Z,2.20
2019-02-18T05:35:19.845Z,2.20
2019-02-18T05:37:47.859Z,2.20
2019-02-18T05:40:15.828Z,2.20
2019-02-18T05:42:43.744Z,2.20
2019-02-18T05:45:11.643Z,2.20
2019-02-18T05:47:39.636Z,2.20
2019-02-18T05:50:07.949Z,2.20
2019-02-18T05:52:36.010Z,2.20
2019-02-18T05:55:04.441Z,2.20
2019-02-18T05:57:32.476Z,2.20
2019-02-18T06:00:00.756Z,2.20
2019-02-18T06:02:28.821Z,2.20
2019-02-18T06:04:56.828Z,2.20
2019-02-18T06:07:24.849Z,2.20
2019-02-18T06:09:52.861Z,2.20
2019-02-18T06:12:21.004Z,2.20
2019-02-18T06:14:48.934Z,2.30
2019-02-18T06:17:16.959Z,2.30
2019-02-18T06:19:45.115Z,2.30
2019-02-18T06:22:13.147Z,2.30
2019-02-18T06:24:41.191Z,2.30
2019-02-18T06:27:09.330Z,2.30
2019-02-18T06:29:37.463Z,2.30
2019-02-18T06:32:05.577Z,2.30
2019-02-18T06:34:33.686Z,2.30
2019-02-18T06:37:03.208Z,2.40
2019-02-18T06:39:40.928Z,2.40
2019-02-18T06:42:01.105Z,2.40
2019-02-18T06:44:49.960Z,2.40
2019-02-18T06:47:25.241Z,2.50
2019-02-18T06:49:53.551Z,2.50
2019-02-18T06:52:21.594Z,2.60
2019-02-18T06:54:49.753Z,2.60
2019-02-18T06:57:49.324Z,2.60
2019-02-18T07:00:21.813Z,2.70
2019-02-18T07:03:18.652Z,2.70
2019-02-18T07:05:57.571Z,2.80
2019-02-18T07:08:33.633Z,2.80
2019-02-18T07:11:08.947Z,2.90
2019-02-18T07:13:36.975Z,3.00
2019-02-18T07:16:04.884Z,3.00
2019-02-18T07:18:32.991Z,3.10
2019-02-18T07:21:01.009Z,3.20
2019-02-18T07:23:29.155Z,3.30
2019-02-18T07:25:57.168Z,3.30
2019-02-18T07:28:25.201Z,3.40
2019-02-18T07:30:53.337Z,3.40
2019-02-18T07:33:21.376Z,3.50
2019-02-18T07:35:49.388Z,3.50
2019-02-18T07:38:17.317Z,3.50
2019-02-18T07:40:45.372Z,3.50
2019-02-18T07:43:13.403Z,3.50
2019-02-18T07:45:41.431Z,3.50
2019-02-18T07:48:09.444Z,3.50
2019-02-18T07:50:37.694Z,3.50
2019-02-18T07:53:05.943Z,3.40
2019-02-18T07:55:34.057Z,3.40
2019-02-18T07:58:02.120Z,3.40
2019-02-18T08:00:30.333Z,3.40
2019-02-18T08:02:59.429Z,3.40
2019-02-18T08:05:27.466Z,3.50
2019-02-18T08:07:55.568Z,3.50
2019-02-18T08:10:23.445Z,3.50
2019-02-18T08:12:51.356Z,3.50
2019-02-18T08:15:19.296Z,3.60
2019-02-18T08:17:47.241Z,3.60
2019-02-18T08:20:15.160Z,3.70
2019-02-18T08:22:43.200Z,3.70
2019-02-18T08:25:11.183Z,3.80
2019-02-18T08:27:39.222Z,3.90
2019-02-18T08:30:08.691Z,4.00
2019-02-18T08:32:36.728Z,4.10
2019-02-18T08:35:04.847Z,4.20
2019-02-18T08:37:32.694Z,4.20
2019-02-18T08:40:00.915Z,4.30
2019-02-18T08:42:28.824Z,4.20
2019-02-18T08:44:56.939Z,4.20
2019-02-18T08:47:24.915Z,4.20
2019-02-18T08:49:53.037Z,4.20
2019-02-18T08:52:21.196Z,4.10
2019-02-18T08:54:56.291Z,4.10
2019-02-18T08:57:18.979Z,4.00
2019-02-18T08:59:46.910Z,4.00
2019-02-18T09:02:14.948Z,3.90
2019-02-18T09:04:42.976Z,3.90
2019-02-18T09:07:11.152Z,3.90
2019-02-18T09:09:39.188Z,3.80
2019-02-18T09:12:07.216Z,3.80
2019-02-18T09:14:35.228Z,3.80
2019-02-18T09:17:03.187Z,3.80
2019-02-18T09:19:31.408Z,3.80
2019-02-18T09:22:25.180Z,3.80
2019-02-18T09:24:59.565Z,3.80
2019-02-18T09:27:27.661Z,3.90
2019-02-18T09:29:55.663Z,4.00
2019-02-18T09:32:23.818Z,4.10
2019-02-18T09:34:53.299Z,4.10
2019-02-18T09:37:21.356Z,4.20
2019-02-18T09:39:49.507Z,4.30
2019-02-18T09:42:17.532Z,4.40
2019-02-18T09:44:45.672Z,4.40
2019-02-18T09:47:13.701Z,4.50
2019-02-18T09:49:41.532Z,4.50
2019-02-18T09:52:09.558Z,4.50
2019-02-18T09:54:37.636Z,4.60
2019-02-18T09:57:05.691Z,4.60
2019-02-18T09:59:33.692Z,4.50
2019-02-18T10:02:01.816Z,4.50
2019-02-18T10:04:29.833Z,4.40
2019-02-18T10:06:57.981Z,4.30
2019-02-18T10:09:26.033Z,4.20
2019-02-18T10:11:54.049Z,4.20
2019-02-18T10:14:22.180Z,4.20
2019-02-18T10:16:50.185Z,4.20
2019-02-18T10:19:18.364Z,4.20
2019-02-18T10:21:46.287Z,4.20
2019-02-18T10:24:14.404Z,4.10
2019-02-18T10:26:42.687Z,4.10
2019-02-18T10:29:10.743Z,4.10
2019-02-18T10:31:38.816Z,4.20
2019-02-18T10:34:06.740Z,4.30
2019-02-18T10:36:34.784Z,4.40
2019-02-18T10:39:04.418Z,4.50
2019-02-18T10:41:32.452Z,4.60
2019-02-18T10:44:00.516Z,4.70
2019-02-18T10:46:28.535Z,4.80
2019-02-18T10:48:56.463Z,4.90
2019-02-18T10:51:24.538Z,5.00
2019-02-18T10:53:52.878Z,5.00
2019-02-18T10:56:20.914Z,5.00
2019-02-18T10:58:49.259Z,5.00
2019-02-18T11:01:17.284Z,5.00
2019-02-18T11:03:45.424Z,5.00
2019-02-18T11:06:13.341Z,4.90
2019-02-18T11:08:41.620Z,4.90
2019-02-18T11:11:16.710Z,4.90
2019-02-18T11:13:39.540Z,4.90
2019-02-18T11:16:07.609Z,4.90
2019-02-18T11:18:35.626Z,4.90
2019-02-18T11:21:03.581Z,5.00
2019-02-18T11:23:31.837Z,5.00
2019-02-18T11:25:59.885Z,5.10
2019-02-18T11:28:27.895Z,5.20
2019-02-18T11:30:56.015Z,5.40
2019-02-18T11:33:24.140Z,5.50
2019-02-18T11:35:52.104Z,5.60
2019-02-18T11:38:20.533Z,5.70
2019-02-18T11:40:48.556Z,5.90
2019-02-18T11:43:16.691Z,5.90
2019-02-18T11:45:44.643Z,6.10
2019-02-18T11:48:12.564Z,6.10
2019-02-18T11:50:40.611Z,6.20
2019-02-18T11:53:11.265Z,6.30
2019-02-18T11:55:39.484Z,6.40
2019-02-18T11:58:07.509Z,6.50
2019-02-18T12:00:35.638Z,6.50
2019-02-18T12:03:10.252Z,6.60
2019-02-18T12:05:33.556Z,6.60
2019-02-18T12:08:02.302Z,6.80
2019-02-18T12:10:30.406Z,7.00
2019-02-18T12:12:58.425Z,7.10
2019-02-18T12:15:26.442Z,7.20
2019-02-18T12:17:54.570Z,7.20
2019-02-18T12:20:22.504Z,7.20
2019-02-18T12:22:50.460Z,7.30
2019-02-18T12:25:18.492Z,7.40
2019-02-18T12:27:46.517Z,7.40
2019-02-18T12:30:14.676Z,7.40
2019-02-18T12:32:42.705Z,7.40
2019-02-18T12:35:11.160Z,7.40
2019-02-18T12:37:39.215Z,7.40
2019-02-18T12:40:07.656Z,7.40
2019-02-18T12:42:36.218Z,7.30
2019-02-18T12:45:04.743Z,7.30
2019-02-18T12:47:33.169Z,7.30
2019-02-18T12:50:01.379Z,7.30
2019-02-18T12:52:29.513Z,7.20
2019-02-18T12:55:00.856Z,7.10
2019-02-18T12:57:29.000Z,7.10
2019-02-18T12:59:57.424Z,7.10
2019-02-18T13:02:25.428Z,7.10
2019-02-18T13:04:53.552Z,7.10
2019-02-18T13:07:21.711Z,7.00
2019-02-18T13:09:49.679Z,6.90
2019-02-18T13:12:17.715Z,6.80
2019-02-18T13:14:45.769Z,6.80
2019-02-18T13:17:13.996Z,6.80
2019-02-18T13:19:42.521Z,6.80
2019-02-18T13:22:10.645Z,6.80
2019-02-18T13:24:38.756Z,6.90
2019-02-18T13:27:06.786Z,6.90
2019-02-18T13:29:34.785Z,6.90
2019-02-18T13:32:02.958Z,6.90
2019-02-18T13:34:31.008Z,6.80
2019-02-18T13:37:01.908Z,6.80
2019-02-18T13:39:31.348Z,6.80
2019-02-18T13:42:07.106Z,6.70
2019-02-18T13:44:29.431Z,6.70
2019-02-18T13:46:57.503Z,6.70
2019-02-18T13:49:25.592Z,6.80
2019-02-18T13:51:56.625Z,6.80
2019-02-18T13:54:23.891Z,6.80
2019-02-18T13:56:51.940Z,6.80
2019-02-18T13:59:20.001Z,6.70
2019-02-18T14:01:48.041Z,6.60
2019-02-18T14:04:16.083Z,6.60
2019-02-18T14:06:44.254Z,6.60
2019-02-18T14:09:12.571Z,6.50
2019-02-18T14:11:40.624Z,6.50
2019-02-18T14:14:08.665Z,6.50
2019-02-18T14:16:36.740Z,6.50
2019-02-18T14:19:05.199Z,6.40
2019-02-18T14:21:33.229Z,6.40
2019-02-18T14:24:01.574Z,6.40
2019-02-18T14:26:29.763Z,6.30
2019-02-18T14:28:57.688Z,6.20
2019-02-18T14:31:25.814Z,6.20
2019-02-18T14:33:53.876Z,6.10
2019-02-18T14:36:21.932Z,6.10
2019-02-18T14:38:50.575Z,6.00
2019-02-18T14:41:20.444Z,6.00
2019-02-18T14:43:48.491Z,5.90
2019-02-18T14:46:16.556Z,5.90
2019-02-18T14:48:44.499Z,5.80
2019-02-18T14:51:12.548Z,5.80
2019-02-18T14:53:40.575Z,5.80
2019-02-18T14:56:10.420Z,5.70
2019-02-18T14:58:38.556Z,5.70
2019-02-18T15:01:07.160Z,5.70
2019-02-18T15:03:35.183Z,5.70
2019-02-18T15:06:03.585Z,5.60
2019-02-18T15:08:31.711Z,5.60
2019-02-18T15:11:00.448Z,5.50
2019-02-18T15:13:29.135Z,5.50
2019-02-18T15:15:57.147Z,5.50
2019-02-18T15:18:25.271Z,5.50
2019-02-18T15:20:53.316Z,5.40
2019-02-18T15:23:21.468Z,5.40
2019-02-18T15:25:49.515Z,5.40
2019-02-18T15:28:17.569Z,5.30
2019-02-18T15:30:45.715Z,5.30
2019-02-18T15:33:13.673Z,5.20
2019-02-18T15:35:41.903Z,5.10
2019-02-18T15:38:09.954Z,5.10
2019-02-18T15:40:38.044Z,5.00
2019-02-18T15:43:06.100Z,5.00
2019-02-18T15:45:34.716Z,5.00
2019-02-18T15:48:02.849Z,4.90
2019-02-18T15:50:30.897Z,4.80
2019-02-18T15:52:58.988Z,4.80
2019-02-18T15:55:27.041Z,4.70
2019-02-18T15:57:55.112Z,4.50
2019-02-18T16:00:23.816Z,4.40
2019-02-18T16:02:51.892Z,4.20
2019-02-18T16:05:19.909Z,4.10
2019-02-18T16:07:48.154Z,4.00
2019-02-18T16:10:16.414Z,4.00
2019-02-18T16:12:50.574Z,4.00
2019-02-18T16:15:14.314Z,3.90
2019-02-18T16:17:43.044Z,3.90
2019-02-18T16:20:11.388Z,3.80
2019-02-18T16:22:39.970Z,3.70
2019-02-18T16:25:10.879Z,3.70
2019-02-18T16:27:38.970Z,3.60
2019-02-18T16:30:09.721Z,3.60
2019-02-18T16:32:38.283Z,3.60
